createdAt,value
2022-11-03T00:03:16.530Z,84.05
2022-11-03T00:08:18.388Z,84.76
2022-11-03T00:13:20.186Z,84.49
2022-11-03T00:18:21.867Z,84.56
2022-11-03T00:23:25.741Z,84.38
2022-11-03T00:28:27.389Z,84.17
2022-11-03T00:33:32.861Z,83.96
2022-11-03T00:38:34.890Z,84.41
2022-11-03T00:43:36.861Z,84.99
2022-11-03T00:48:39.255Z,85.03
2022-11-03T00:53:46.208Z,85.21
2022-11-03T00:58:49.387Z,85.33
2022-11-03T01:04:13.868Z,85.40
2022-11-03T01:09:21.901Z,85.43
2022-11-03T01:14:25.679Z,84.55
2022-11-03T01:19:28.090Z,83.92
2022-11-03T01:24:29.897Z,83.57
2022-11-03T01:29:31.627Z,83.82
2022-11-03T01:34:33.421Z,84.53
2022-11-03T01:39:35.262Z,84.83
2022-11-03T01:44:42.005Z,84.57
2022-11-03T01:49:46.788Z,83.59
2022-11-03T01:54:53.874Z,83.52
2022-11-03T01:59:58.375Z,83.92
2022-11-03T02:05:02.756Z,83.51
2022-11-03T02:10:05.338Z,83.88
2022-11-03T02:15:13.696Z,84.33
2022-11-03T02:20:19.023Z,83.84
2022-11-03T02:25:50.767Z,83.36
2022-11-03T02:31:08.518Z,83.46
2022-11-03T02:36:17.933Z,83.48
2022-11-03T02:41:21.587Z,83.67
2022-11-03T02:46:26.179Z,83.59
2022-11-03T02:51:28.223Z,83.75
2022-11-03T02:56:31.756Z,83.63
2022-11-03T03:01:34.984Z,83.93
2022-11-03T03:06:42.891Z,84.57
2022-11-03T03:11:46.912Z,83.94
2022-11-03T03:17:13.278Z,83.88
2022-11-03T03:22:24.823Z,83.91
2022-11-03T03:27:29.613Z,84.18
2022-11-03T03:32:37.518Z,83.91
2022-11-03T03:37:45.260Z,83.73
2022-11-03T03:42:48.347Z,83.68
2022-11-03T03:47:53.655Z,83.82
2022-11-03T03:53:05.042Z,84.17
2022-11-03T03:58:10.595Z,83.71
2022-11-03T04:03:23.961Z,83.51
2022-11-03T04:08:25.830Z,83.70
2022-11-03T04:13:46.305Z,83.34
2022-11-03T04:19:06.584Z,82.77
2022-11-03T04:24:08.341Z,83.23
2022-11-03T04:29:11.801Z,84.21
2022-11-03T04:34:13.556Z,84.84
2022-11-03T04:39:20.196Z,84.89
2022-11-03T04:44:22.317Z,85.10
2022-11-03T04:49:24.156Z,85.68
2022-11-03T04:54:26.580Z,85.33
2022-11-03T04:59:28.782Z,84.94
2022-11-03T05:04:30.453Z,85.47
2022-11-03T05:09:32.262Z,86.20
2022-11-03T05:14:34.114Z,86.80
2022-11-03T05:19:42.016Z,87.02
2022-11-03T05:24:44.275Z,87.56
2022-11-03T05:29:46.108Z,88.30
2022-11-03T05:34:51.106Z,88.57
2022-11-03T05:39:55.609Z,88.44
2022-11-03T05:44:57.964Z,88.46
2022-11-03T05:50:14.612Z,89.02
2022-11-03T05:55:43.469Z,89.80
2022-11-03T06:00:48.617Z,90.16
2022-11-03T06:05:51.615Z,90.21
2022-11-03T06:10:55.333Z,90.06
2022-11-03T06:16:01.251Z,90.51
2022-11-03T06:21:12.637Z,90.22
2022-11-03T06:26:20.911Z,90.54
2022-11-03T06:31:31.609Z,90.79
2022-11-03T06:36:36.711Z,90.50
2022-11-03T06:41:38.416Z,90.61
2022-11-03T06:46:40.151Z,90.98
2022-11-03T06:51:41.781Z,90.56
2022-11-03T06:56:43.420Z,90.87
2022-11-03T07:01:48.487Z,90.65
2022-11-03T07:06:53.567Z,91.33
2022-11-03T07:11:59.544Z,90.23
2022-11-03T07:17:04.807Z,90.84
2022-11-03T07:22:16.624Z,91.25
2022-11-03T07:27:28.970Z,91.11
2022-11-03T07:32:33.272Z,90.25
2022-11-03T07:37:35.381Z,90.23
2022-11-03T07:42:37.049Z,90.58
2022-11-03T07:47:43.901Z,90.42
2022-11-03T07:52:45.960Z,90.38
2022-11-03T07:57:48.180Z,90.82
2022-11-03T08:02:58.294Z,91.09
2022-11-03T08:08:00.683Z,91.29
2022-11-03T08:13:02.361Z,91.12
2022-11-03T08:18:04.212Z,91.64
2022-11-03T08:23:24.740Z,91.84
2022-11-03T08:28:27.317Z,92.02
2022-11-03T08:38:31.326Z,93.19
2022-11-03T08:43:33.303Z,93.15
2022-11-03T08:48:35.170Z,93.26
2022-11-03T08:53:38.476Z,94.01
2022-11-03T08:58:40.733Z,94.90
2022-11-03T09:03:42.618Z,95.34
2022-11-03T09:14:06.338Z,96.04
2022-11-03T09:19:08.168Z,96.48
2022-11-03T09:24:10.477Z,96.91
2022-11-03T09:29:12.111Z,97.33
2022-11-03T09:34:13.969Z,97.69
2022-11-03T09:39:15.660Z,97.88
2022-11-03T09:44:17.667Z,98.07
2022-11-03T09:49:21.238Z,98.29
2022-11-03T09:54:23.104Z,98.37
2022-11-03T09:59:25.133Z,98.35
2022-11-03T10:04:28.407Z,98.01
2022-11-03T10:09:30.107Z,98.04
2022-11-03T10:14:31.723Z,98.15
2022-11-03T10:19:33.572Z,98.00
2022-11-03T10:24:35.849Z,97.84
2022-11-03T10:29:39.927Z,97.18
2022-11-03T10:34:42.995Z,97.14
2022-11-03T10:39:45.785Z,96.62
2022-11-03T10:44:48.329Z,96.73
2022-11-03T10:49:50.119Z,96.09
2022-11-03T10:54:54.608Z,95.32
2022-11-03T10:59:56.479Z,95.17
2022-11-03T11:05:01.340Z,94.87
2022-11-03T11:10:07.865Z,94.70
2022-11-03T11:15:36.540Z,94.44
2022-11-03T11:20:39.072Z,94.08
2022-11-03T11:26:05.857Z,93.75
2022-11-03T11:31:22.556Z,94.06
2022-11-03T11:36:25.396Z,94.25
2022-11-03T11:41:45.652Z,94.48
2022-11-03T11:46:47.468Z,94.02
2022-11-03T11:51:49.171Z,93.81
2022-11-03T11:56:51.022Z,93.54
2022-11-03T12:01:57.256Z,93.51
2022-11-03T12:06:59.474Z,94.14
2022-11-03T12:12:07.180Z,94.21
2022-11-03T12:17:15.927Z,93.87
2022-11-03T12:22:23.939Z,93.44
2022-11-03T12:27:25.666Z,93.15
2022-11-03T12:32:35.545Z,93.10
2022-11-03T12:37:37.596Z,93.32
2022-11-03T12:42:39.563Z,93.02
2022-11-03T12:47:41.461Z,92.80
2022-11-03T12:52:43.140Z,92.14
2022-11-03T12:57:45.849Z,92.07
2022-11-03T13:02:47.828Z,91.75
2022-11-03T13:07:49.686Z,91.97
2022-11-03T13:12:51.427Z,91.94
2022-11-03T13:18:12.262Z,92.25
2022-11-03T13:23:17.468Z,92.56
2022-11-03T13:28:22.040Z,92.12
2022-11-03T13:33:23.953Z,91.95
2022-11-03T13:38:25.652Z,91.84
2022-11-03T13:43:28.441Z,92.18
2022-11-03T13:59:29.204Z,91.79
2022-11-03T14:04:46.983Z,91.87
2022-11-03T14:09:48.781Z,92.12
2022-11-03T14:14:50.554Z,91.88
2022-11-03T14:19:55.575Z,91.82
2022-11-03T14:25:01.369Z,91.35
2022-11-03T14:30:04.222Z,91.57
2022-11-03T14:35:06.265Z,91.80
2022-11-03T14:40:28.564Z,91.56
2022-11-03T14:45:30.295Z,91.41
2022-11-03T14:50:32.160Z,91.47
2022-11-03T14:55:33.808Z,91.39
2022-11-03T15:00:35.517Z,91.52
2022-11-03T15:05:46.134Z,91.40
2022-11-03T15:10:48.136Z,91.47
2022-11-03T15:15:49.855Z,91.95
2022-11-03T15:20:51.476Z,91.89
2022-11-03T15:25:53.166Z,91.89
2022-11-03T15:30:54.820Z,92.14
2022-11-03T15:35:56.670Z,92.36
2022-11-03T15:41:15.462Z,93.19
2022-11-03T15:46:18.392Z,94.11
2022-11-03T15:51:20.285Z,94.38
2022-11-03T15:56:21.911Z,94.53
2022-11-03T16:01:23.902Z,94.48
2022-11-03T16:06:46.480Z,94.29
2022-11-03T16:11:47.559Z,94.17
2022-11-03T16:16:49.221Z,93.94
2022-11-03T16:21:51.625Z,93.21
2022-11-03T16:26:53.352Z,92.76
2022-11-03T16:31:55.010Z,93.91
2022-11-03T16:36:56.801Z,94.29
2022-11-03T16:41:58.849Z,93.84
2022-11-03T16:47:01.524Z,94.32
2022-11-03T16:52:03.406Z,94.71
2022-11-03T16:57:05.680Z,94.43
2022-11-03T17:02:10.853Z,94.59
2022-11-03T17:07:15.311Z,95.14
2022-11-03T17:12:17.070Z,95.74
2022-11-03T17:17:18.731Z,95.97
2022-11-03T17:22:22.198Z,95.64
2022-11-03T17:27:27.873Z,95.55
2022-11-03T17:32:36.815Z,94.94
2022-11-03T17:37:38.497Z,94.51
2022-11-03T17:42:40.299Z,93.90
2022-11-03T17:47:42.813Z,93.68
2022-11-03T17:52:46.421Z,93.21
2022-11-03T17:57:48.828Z,93.21
2022-11-03T18:02:51.414Z,93.02
2022-11-03T18:07:54.816Z,93.11
2022-11-03T18:13:18.297Z,93.19
2022-11-03T18:18:34.562Z,93.20
2022-11-03T18:23:36.253Z,93.63
2022-11-03T18:28:37.904Z,93.76
2022-11-03T18:33:39.611Z,93.96
2022-11-03T18:38:44.279Z,94.15
2022-11-03T18:43:45.989Z,94.07
2022-11-03T18:48:47.623Z,94.15
2022-11-03T18:53:49.297Z,94.17
2022-11-03T18:58:53.560Z,94.18
2022-11-03T19:03:56.563Z,94.29
2022-11-03T19:08:59.937Z,93.97
2022-11-03T19:14:01.736Z,93.75
2022-11-03T19:19:03.583Z,93.69
2022-11-03T19:24:05.486Z,93.98
2022-11-03T19:29:12.444Z,93.68
2022-11-03T19:34:20.864Z,93.07
2022-11-03T19:39:26.899Z,93.31
2022-11-03T19:44:28.850Z,93.83
2022-11-03T19:49:30.702Z,94.59
2022-11-03T19:54:32.379Z,94.75
2022-11-03T19:59:34.118Z,95.33
2022-11-03T20:04:35.860Z,96.11
2022-11-03T20:09:38.025Z,96.65
2022-11-03T20:14:39.685Z,97.18
2022-11-03T20:19:41.387Z,97.29
2022-11-03T20:24:45.320Z,97.33
2022-11-03T20:29:48.650Z,97.33
2022-11-03T20:34:50.537Z,97.06
2022-11-03T20:39:52.458Z,96.51
2022-11-03T20:44:54.665Z,96.21
2022-11-03T20:49:56.606Z,96.09
2022-11-03T20:54:58.822Z,95.73
2022-11-03T21:00:00.505Z,94.88
2022-11-03T21:05:02.249Z,94.89
2022-11-03T21:10:04.087Z,95.00
2022-11-03T21:15:36.331Z,94.99
2022-11-03T21:20:38.413Z,95.44
2022-11-03T21:25:40.294Z,95.03
2022-11-03T21:30:42.105Z,95.17
2022-11-03T21:35:45.675Z,95.62
2022-11-03T21:40:55.241Z,95.76
2022-11-03T21:46:11.919Z,95.83
2022-11-03T21:51:13.611Z,95.79
2022-11-03T21:56:15.930Z,95.61
2022-11-03T22:01:17.827Z,95.80
2022-11-03T22:06:19.963Z,96.05
2022-11-03T22:11:21.791Z,96.23
2022-11-03T22:16:36.676Z,96.67
2022-11-03T22:21:56.888Z,96.78
2022-11-03T22:27:00.486Z,96.99
2022-11-03T22:32:02.544Z,97.16
2022-11-03T22:37:04.413Z,97.38
2022-11-03T22:42:24.602Z,97.47
2022-11-03T22:47:26.709Z,100.00
2022-11-03T22:52:28.350Z,100.00
2022-11-03T22:57:30.037Z,100.00
2022-11-03T23:02:32.044Z,100.00
2022-11-03T23:07:41.272Z,100.00
2022-11-03T23:12:43.280Z,100.00
2022-11-03T23:18:03.299Z,100.00
2022-11-03T23:23:05.280Z,100.00
2022-11-03T23:28:07.122Z,100.00
2022-11-03T23:33:09.036Z,100.00
2022-11-03T23:38:11.293Z,100.00
2022-11-03T23:43:12.957Z,100.00
2022-11-03T23:48:33.229Z,100.00
2022-11-03T23:53:35.037Z,100.00
2022-11-03T23:58:36.799Z,100.00
